createdAt,value
2022-12-04T00:01:27.762Z,87.05
2022-12-04T00:03:56.720Z,86.60
2022-12-04T00:06:23.952Z,86.87
2022-12-04T00:08:51.793Z,86.17
2022-12-04T00:11:22.081Z,87.04
2022-12-04T00:13:48.671Z,86.66
2022-12-04T00:16:18.894Z,87.42
2022-12-04T00:18:45.529Z,86.98
2022-12-04T00:21:13.929Z,87.31
2022-12-04T00:23:40.782Z,86.94
2022-12-04T00:26:10.587Z,87.09
2022-12-04T00:28:37.840Z,86.93
2022-12-04T00:31:12.953Z,87.22
2022-12-04T00:33:39.841Z,87.00
2022-12-04T00:36:09.782Z,86.55
2022-12-04T00:38:37.380Z,86.76
2022-12-04T00:41:05.115Z,87.50
2022-12-04T00:43:31.864Z,87.23
2022-12-04T00:45:58.559Z,86.80
2022-12-04T00:48:25.157Z,86.89
2022-12-04T00:50:51.756Z,87.00
2022-12-04T00:53:18.395Z,86.48
2022-12-04T00:55:44.911Z,87.64
2022-12-04T00:58:12.318Z,87.28
2022-12-04T01:00:41.618Z,87.01
2022-12-04T01:03:09.407Z,87.21
2022-12-04T01:05:40.875Z,87.07
2022-12-04T01:08:08.164Z,86.73
2022-12-04T01:10:35.214Z,87.02
2022-12-04T01:13:01.727Z,87.10
2022-12-04T01:15:28.206Z,87.10
2022-12-04T01:17:54.863Z,87.52
2022-12-04T01:20:21.374Z,87.75
2022-12-04T01:22:47.879Z,87.41
2022-12-04T01:25:14.338Z,87.51
2022-12-04T01:27:40.833Z,87.88
2022-12-04T01:30:08.048Z,87.93
2022-12-04T01:32:34.508Z,87.80
2022-12-04T01:35:00.984Z,87.81
2022-12-04T01:37:30.665Z,87.75
2022-12-04T01:39:57.661Z,87.99
2022-12-04T01:42:24.909Z,88.01
2022-12-04T01:45:29.259Z,87.77
2022-12-04T01:48:00.307Z,87.26
2022-12-04T01:50:26.889Z,88.24
2022-12-04T01:52:53.532Z,87.84
2022-12-04T01:55:20.052Z,87.86
2022-12-04T01:57:46.666Z,88.00
2022-12-04T02:00:15.959Z,87.66
2022-12-04T02:02:47.394Z,87.92
2022-12-04T02:05:19.347Z,88.32
2022-12-04T02:07:48.638Z,87.81
2022-12-04T02:10:17.176Z,88.21
2022-12-04T02:12:51.175Z,87.93
2022-12-04T02:15:26.823Z,88.08
2022-12-04T02:18:22.466Z,88.41
2022-12-04T02:20:57.856Z,88.32
2022-12-04T02:23:52.357Z,88.38
2022-12-04T02:26:40.729Z,88.56
2022-12-04T02:29:34.283Z,88.82
2022-12-04T02:32:19.946Z,88.38
2022-12-04T02:35:08.885Z,88.18
2022-12-04T02:37:49.592Z,88.55
2022-12-04T02:40:22.879Z,88.05
2022-12-04T02:43:03.496Z,88.26
2022-12-04T02:45:35.250Z,88.28
2022-12-04T02:48:06.250Z,87.79
2022-12-04T02:50:36.104Z,88.36
2022-12-04T02:53:10.201Z,88.42
2022-12-04T02:56:17.147Z,88.46
2022-12-04T02:58:52.796Z,87.98
2022-12-04T03:01:24.039Z,87.80
2022-12-04T03:04:14.084Z,87.50
2022-12-04T03:06:44.442Z,88.33
2022-12-04T03:09:32.754Z,87.84
2022-12-04T03:12:20.523Z,88.45
2022-12-04T03:15:08.003Z,88.51
2022-12-04T03:17:46.135Z,88.54
2022-12-04T03:20:15.307Z,88.36
2022-12-04T03:22:46.020Z,88.46
2022-12-04T03:25:13.918Z,88.85
2022-12-04T03:27:54.651Z,88.83
2022-12-04T03:30:23.927Z,89.17
2022-12-04T03:33:07.131Z,88.79
2022-12-04T03:35:39.308Z,88.79
2022-12-04T03:38:37.760Z,88.70
2022-12-04T03:41:30.541Z,88.81
2022-12-04T03:44:08.836Z,89.06
2022-12-04T03:47:01.864Z,89.41
2022-12-04T03:49:42.059Z,88.53
2022-12-04T03:52:18.844Z,89.08
2022-12-04T03:55:18.300Z,89.02
2022-12-04T03:57:46.752Z,89.02
2022-12-04T04:00:15.641Z,88.96
2022-12-04T04:02:48.765Z,89.35
2022-12-04T04:05:16.571Z,89.67
2022-12-04T04:07:51.545Z,89.46
2022-12-04T04:10:21.851Z,89.01
2022-12-04T04:13:19.260Z,88.72
2022-12-04T04:16:10.943Z,89.39
2022-12-04T04:19:00.494Z,89.66
2022-12-04T04:21:50.884Z,89.14
2022-12-04T04:24:43.369Z,89.35
2022-12-04T04:27:10.009Z,89.58
2022-12-04T04:29:38.043Z,89.88
2022-12-04T04:32:16.762Z,89.84
2022-12-04T04:35:04.997Z,89.32
2022-12-04T04:37:42.915Z,90.04
2022-12-04T04:40:15.449Z,90.13
2022-12-04T04:42:48.002Z,89.88
2022-12-04T04:45:47.974Z,90.17
2022-12-04T04:48:19.427Z,90.01
2022-12-04T04:50:46.369Z,90.34
2022-12-04T04:53:18.784Z,89.62
2022-12-04T04:55:45.855Z,90.41
2022-12-04T04:58:16.148Z,89.94
2022-12-04T05:01:05.545Z,90.49
2022-12-04T05:03:32.639Z,90.57
2022-12-04T05:05:59.330Z,90.29
2022-12-04T05:08:25.865Z,90.97
2022-12-04T05:10:52.538Z,91.16
2022-12-04T05:13:19.848Z,90.74
2022-12-04T05:16:03.550Z,90.59
2022-12-04T05:18:31.387Z,90.97
2022-12-04T05:21:05.444Z,91.14
2022-12-04T05:23:31.892Z,90.38
2022-12-04T05:26:02.767Z,90.57
2022-12-04T05:28:29.510Z,90.74
2022-12-04T05:30:57.717Z,91.14
2022-12-04T05:33:24.477Z,91.33
2022-12-04T05:36:02.316Z,91.45
2022-12-04T05:38:28.897Z,91.71
2022-12-04T05:40:58.158Z,92.20
2022-12-04T05:43:24.721Z,91.36
2022-12-04T05:45:51.180Z,90.93
2022-12-04T05:48:17.841Z,90.92
2022-12-04T05:50:44.489Z,90.49
2022-12-04T05:53:10.971Z,91.25
2022-12-04T05:55:37.560Z,91.19
2022-12-04T05:58:04.640Z,91.72
2022-12-04T06:00:31.343Z,92.17
2022-12-04T06:02:58.263Z,91.91
2022-12-04T06:05:24.721Z,91.70
2022-12-04T06:07:51.386Z,91.45
2022-12-04T06:10:17.889Z,91.24
2022-12-04T06:12:44.360Z,91.02
2022-12-04T06:15:11.161Z,91.53
2022-12-04T06:17:37.629Z,91.43
2022-12-04T06:20:10.916Z,91.48
2022-12-04T06:22:38.102Z,91.48
2022-12-04T06:25:04.929Z,91.96
2022-12-04T06:27:31.651Z,92.26
2022-12-04T06:29:58.541Z,91.91
2022-12-04T06:32:25.499Z,91.93
2022-12-04T06:34:53.612Z,91.34
2022-12-04T06:37:21.775Z,91.69
2022-12-04T06:39:48.815Z,91.09
2022-12-04T06:42:15.372Z,91.32
2022-12-04T06:44:41.849Z,91.52
2022-12-04T06:47:08.667Z,91.30
2022-12-04T06:49:36.189Z,91.58
2022-12-04T06:52:02.710Z,91.60
2022-12-04T06:54:29.229Z,91.10
2022-12-04T06:56:55.659Z,91.20
2022-12-04T06:59:22.115Z,92.13
2022-12-04T07:01:48.742Z,91.23
2022-12-04T07:04:15.320Z,91.66
2022-12-04T07:06:42.016Z,91.49
2022-12-04T07:09:15.422Z,91.86
2022-12-04T07:11:43.193Z,91.67
2022-12-04T07:14:11.685Z,91.30
2022-12-04T07:16:41.340Z,92.11
2022-12-04T07:19:13.691Z,92.38
2022-12-04T07:21:41.120Z,92.12
2022-12-04T07:24:07.842Z,92.32
2022-12-04T07:26:34.318Z,92.13
2022-12-04T07:29:00.935Z,92.35
2022-12-04T07:31:29.483Z,91.78
2022-12-04T07:33:56.750Z,91.78
2022-12-04T07:36:24.521Z,92.31
2022-12-04T07:38:51.391Z,92.23
2022-12-04T07:41:19.315Z,92.08
2022-12-04T07:43:46.188Z,92.60
2022-12-04T07:46:16.270Z,92.57
2022-12-04T07:48:43.326Z,92.02
2022-12-04T07:51:15.689Z,92.15
2022-12-04T07:53:42.480Z,92.54
2022-12-04T07:56:10.495Z,92.26
2022-12-04T07:58:37.136Z,92.34
2022-12-04T08:01:12.368Z,91.92
2022-12-04T08:03:46.874Z,92.17
2022-12-04T08:06:15.648Z,91.78
2022-12-04T08:08:42.216Z,92.19
2022-12-04T08:11:11.675Z,92.07
2022-12-04T08:13:38.178Z,91.72
2022-12-04T08:16:06.645Z,91.84
2022-12-04T08:18:33.330Z,91.68
2022-12-04T08:21:05.717Z,91.73
2022-12-04T08:23:32.286Z,92.17
2022-12-04T08:26:00.558Z,92.65
2022-12-04T08:28:27.182Z,92.22
2022-12-04T08:30:53.768Z,92.26
2022-12-04T08:33:20.300Z,92.26
2022-12-04T08:35:46.927Z,92.58
2022-12-04T08:38:13.435Z,92.26
2022-12-04T08:40:40.046Z,92.31
2022-12-04T08:43:06.479Z,92.58
2022-12-04T08:45:33.093Z,92.57
2022-12-04T08:47:59.578Z,92.00
2022-12-04T08:50:26.069Z,92.42
2022-12-04T08:52:52.635Z,92.50
2022-12-04T08:55:19.715Z,92.13
2022-12-04T08:57:46.313Z,92.25
2022-12-04T09:00:13.501Z,92.11
2022-12-04T09:02:39.952Z,91.73
2022-12-04T09:05:06.701Z,92.28
2022-12-04T09:07:33.405Z,92.85
2022-12-04T09:10:00.151Z,92.48
2022-12-04T09:12:26.979Z,93.01
2022-12-04T09:14:53.619Z,92.83
2022-12-04T09:17:20.072Z,92.69
2022-12-04T09:19:46.740Z,92.76
2022-12-04T09:22:13.235Z,92.66
2022-12-04T09:24:39.824Z,92.35
2022-12-04T09:27:11.287Z,92.94
2022-12-04T09:29:40.886Z,93.45
2022-12-04T09:32:07.637Z,93.65
2022-12-04T09:34:34.184Z,93.22
2022-12-04T09:37:01.130Z,93.51
2022-12-04T09:39:27.674Z,93.34
2022-12-04T09:42:09.391Z,93.15
2022-12-04T09:44:41.355Z,93.78
2022-12-04T09:47:29.664Z,93.92
2022-12-04T09:49:59.024Z,93.63
2022-12-04T09:52:40.218Z,94.33
2022-12-04T09:55:11.764Z,94.12
2022-12-04T09:57:43.968Z,93.76
2022-12-04T10:00:14.212Z,93.88
2022-12-04T10:02:44.837Z,94.07
2022-12-04T10:05:21.693Z,94.10
2022-12-04T10:08:07.665Z,94.19
2022-12-04T10:10:39.424Z,94.59
2022-12-04T10:13:24.606Z,95.18
2022-12-04T10:16:20.771Z,94.59
2022-12-04T10:19:00.891Z,94.60
2022-12-04T10:22:00.604Z,94.93
2022-12-04T10:24:48.484Z,94.22
2022-12-04T10:27:22.758Z,94.55
2022-12-04T10:29:55.662Z,93.72
2022-12-04T10:32:35.018Z,93.40
2022-12-04T10:35:33.075Z,92.85
2022-12-04T10:38:06.892Z,92.84
2022-12-04T10:40:40.224Z,92.98
2022-12-04T10:43:18.900Z,92.94
2022-12-04T10:45:45.532Z,92.61
2022-12-04T10:48:31.628Z,92.05
2022-12-04T10:50:58.188Z,91.61
2022-12-04T10:53:31.025Z,91.31
2022-12-04T10:56:09.514Z,91.50
2022-12-04T10:58:36.005Z,91.32
2022-12-04T11:01:05.986Z,91.28
2022-12-04T11:03:32.654Z,91.65
2022-12-04T11:06:03.866Z,90.84
2022-12-04T11:08:42.637Z,91.10
2022-12-04T11:11:12.899Z,91.28
2022-12-04T11:13:42.189Z,90.89
2022-12-04T11:16:28.885Z,91.92
2022-12-04T11:18:55.578Z,91.13
2022-12-04T11:21:32.130Z,90.57
2022-12-04T11:23:58.912Z,90.68
2022-12-04T11:26:32.851Z,90.41
2022-12-04T11:29:05.411Z,90.71
2022-12-04T11:31:33.168Z,91.09
2022-12-04T11:34:06.879Z,90.62
2022-12-04T11:36:41.654Z,90.92
2022-12-04T11:39:11.142Z,90.29
2022-12-04T11:41:38.058Z,90.20
2022-12-04T11:44:24.611Z,89.89
2022-12-04T11:46:56.625Z,89.90
2022-12-04T11:49:25.135Z,90.82
2022-12-04T11:52:23.153Z,90.05
2022-12-04T11:55:08.789Z,90.44
2022-12-04T11:57:49.893Z,89.84
2022-12-04T12:00:21.781Z,90.58
2022-12-04T12:02:58.153Z,89.59
2022-12-04T12:05:46.247Z,89.82
2022-12-04T12:08:46.783Z,90.10
2022-12-04T12:11:25.802Z,89.84
2022-12-04T12:14:15.474Z,90.58
2022-12-04T12:16:58.413Z,89.98
2022-12-04T12:20:04.260Z,90.75
2022-12-04T12:22:36.505Z,90.33
2022-12-04T12:25:17.371Z,89.90
2022-12-04T12:27:43.857Z,89.87
2022-12-04T12:30:22.446Z,90.15
2022-12-04T12:32:53.868Z,90.14
2022-12-04T12:35:27.089Z,89.88
2022-12-04T12:37:58.210Z,89.14
2022-12-04T12:40:39.866Z,89.27
2022-12-04T12:43:20.833Z,89.50
2022-12-04T12:45:59.747Z,89.43
2022-12-04T12:48:46.589Z,89.63
2022-12-04T12:51:29.963Z,89.69
2022-12-04T12:54:04.845Z,89.01
2022-12-04T12:56:38.497Z,89.56
2022-12-04T12:59:12.246Z,90.19
2022-12-04T13:02:13.927Z,89.83
2022-12-04T13:04:43.646Z,90.07
2022-12-04T13:07:20.700Z,90.26
2022-12-04T13:09:53.057Z,89.48
2022-12-04T13:12:21.211Z,89.46
2022-12-04T13:14:49.292Z,89.51
2022-12-04T13:17:24.012Z,90.30
2022-12-04T13:19:54.472Z,90.41
2022-12-04T13:22:54.179Z,90.03
2022-12-04T13:25:35.900Z,89.86
2022-12-04T13:28:31.499Z,89.69
2022-12-04T13:31:25.841Z,90.63
2022-12-04T13:33:58.084Z,90.78
2022-12-04T13:36:42.950Z,91.77
2022-12-04T13:39:18.629Z,91.73
2022-12-04T13:41:45.197Z,91.85
2022-12-04T13:44:22.268Z,91.32
2022-12-04T13:46:58.831Z,91.90
2022-12-04T13:49:31.763Z,92.07
2022-12-04T13:52:00.364Z,91.73
2022-12-04T13:54:35.760Z,91.20
2022-12-04T13:57:14.552Z,91.38
2022-12-04T13:59:42.329Z,91.72
2022-12-04T14:02:29.031Z,91.62
2022-12-04T14:05:06.563Z,92.21
2022-12-04T14:07:42.958Z,92.70
2022-12-04T14:10:15.750Z,91.87
2022-12-04T14:12:49.845Z,92.35
2022-12-04T14:15:38.188Z,92.63
2022-12-04T14:18:11.434Z,92.28
2022-12-04T14:20:39.370Z,92.32
2022-12-04T14:23:17.863Z,91.51
2022-12-04T14:25:44.443Z,92.63
2022-12-04T14:28:22.863Z,92.32
2022-12-04T14:31:06.015Z,91.91
2022-12-04T14:33:39.509Z,91.65
2022-12-04T14:36:11.072Z,91.93
2022-12-04T14:38:38.413Z,92.36
2022-12-04T14:41:04.955Z,91.43
2022-12-04T14:43:50.433Z,91.50
2022-12-04T14:46:41.717Z,92.23
2022-12-04T14:49:23.583Z,91.75
2022-12-04T14:52:27.101Z,91.94
2022-12-04T14:55:07.504Z,91.57
2022-12-04T14:58:00.337Z,91.32
2022-12-04T15:00:26.815Z,92.23
2022-12-04T15:02:58.232Z,92.18
2022-12-04T15:05:28.412Z,91.40
2022-12-04T15:07:59.938Z,92.34
2022-12-04T15:10:47.683Z,91.72
2022-12-04T15:13:29.237Z,91.31
2022-12-04T15:15:56.099Z,90.65
2022-12-04T15:18:22.703Z,90.85
2022-12-04T15:20:49.127Z,91.64
2022-12-04T15:23:18.828Z,90.83
2022-12-04T15:25:49.044Z,91.03
2022-12-04T15:28:31.348Z,91.29
2022-12-04T15:31:01.053Z,90.90
2022-12-04T15:33:30.867Z,91.25
2022-12-04T15:36:02.841Z,90.46
2022-12-04T15:38:29.578Z,91.11
2022-12-04T15:40:58.861Z,90.60
2022-12-04T15:43:41.145Z,91.18
2022-12-04T15:46:35.806Z,90.48
2022-12-04T15:49:26.858Z,90.22
2022-12-04T15:52:05.716Z,90.96
2022-12-04T15:54:33.066Z,90.53
2022-12-04T15:57:05.636Z,91.09
2022-12-04T15:59:34.715Z,90.53
2022-12-04T16:02:08.800Z,91.01
2022-12-04T16:04:37.951Z,91.24
2022-12-04T16:07:20.545Z,90.78
2022-12-04T16:09:55.797Z,91.00
2022-12-04T16:12:31.583Z,91.13
2022-12-04T16:14:58.344Z,91.32
2022-12-04T16:17:31.430Z,91.60
2022-12-04T16:19:59.286Z,91.90
2022-12-04T16:22:27.098Z,91.70
2022-12-04T16:24:54.588Z,91.14
2022-12-04T16:27:25.754Z,90.92
2022-12-04T16:29:53.198Z,91.06
2022-12-04T16:32:24.589Z,91.28
2022-12-04T16:34:53.407Z,91.48
2022-12-04T16:37:23.337Z,90.90
2022-12-04T16:39:50.651Z,91.04
2022-12-04T16:42:29.665Z,90.49
2022-12-04T16:44:58.182Z,90.29
2022-12-04T16:47:25.248Z,90.26
2022-12-04T16:49:57.738Z,90.42
2022-12-04T16:52:50.092Z,90.97
2022-12-04T16:55:38.579Z,90.74
2022-12-04T16:58:08.870Z,90.88
2022-12-04T17:00:46.245Z,91.51
2022-12-04T17:03:29.047Z,91.20
2022-12-04T17:05:56.944Z,91.63
2022-12-04T17:08:26.731Z,90.96
2022-12-04T17:10:54.207Z,91.02
2022-12-04T17:13:28.438Z,90.73
2022-12-04T17:15:55.492Z,90.89
2022-12-04T17:18:22.452Z,90.75
2022-12-04T17:20:51.879Z,91.10
2022-12-04T17:23:19.031Z,91.61
2022-12-04T17:25:51.826Z,92.11
2022-12-04T17:28:21.332Z,91.13
2022-12-04T17:30:48.273Z,91.01
2022-12-04T17:33:18.446Z,90.86
2022-12-04T17:35:51.164Z,91.06
2022-12-04T17:38:40.699Z,91.38
2022-12-04T17:41:22.601Z,91.82
2022-12-04T17:43:49.960Z,91.87
2022-12-04T17:46:21.856Z,92.15
2022-12-04T17:48:53.231Z,92.29
2022-12-04T17:51:24.361Z,92.99
2022-12-04T17:53:55.806Z,93.32
2022-12-04T17:56:34.229Z,93.07
2022-12-04T17:59:14.535Z,93.77
2022-12-04T18:01:41.709Z,93.26
2022-12-04T18:04:29.166Z,93.98
2022-12-04T18:06:56.565Z,94.23
2022-12-04T18:09:23.151Z,95.41
2022-12-04T18:12:39.403Z,94.42
2022-12-04T18:15:25.181Z,93.46
2022-12-04T18:18:03.457Z,94.07
2022-12-04T18:20:32.785Z,93.82
2022-12-04T18:23:51.364Z,93.80
2022-12-04T18:26:21.318Z,94.13
2022-12-04T18:28:51.856Z,94.09
2022-12-04T18:31:24.228Z,94.48
2022-12-04T18:33:51.006Z,94.70
2022-12-04T18:36:42.450Z,94.63
2022-12-04T18:39:21.118Z,94.60
2022-12-04T18:41:55.856Z,93.74
2022-12-04T18:44:26.877Z,94.18
2022-12-04T18:46:58.804Z,94.72
2022-12-04T18:49:28.739Z,94.67
2022-12-04T18:51:59.205Z,94.49
2022-12-04T18:54:26.184Z,94.55
2022-12-04T18:56:58.360Z,94.83
2022-12-04T18:59:32.442Z,95.16
2022-12-04T19:01:59.340Z,94.88
2022-12-04T19:04:34.758Z,94.93
2022-12-04T19:07:02.516Z,95.54
2022-12-04T19:10:02.575Z,94.85
2022-12-04T19:12:21.930Z,95.07
2022-12-04T19:14:51.897Z,95.77
2022-12-04T19:17:24.309Z,94.69
2022-12-04T19:19:54.065Z,95.25
2022-12-04T19:22:26.666Z,95.56
2022-12-04T19:25:00.608Z,95.05
2022-12-04T19:27:33.908Z,95.27
2022-12-04T19:30:04.015Z,95.10
2022-12-04T19:32:35.093Z,95.10
2022-12-04T19:35:11.440Z,95.24
2022-12-04T19:37:41.715Z,95.27
2022-12-04T19:40:14.027Z,96.12
2022-12-04T19:42:43.227Z,95.72
2022-12-04T19:45:10.792Z,95.49
2022-12-04T19:47:43.435Z,95.41
2022-12-04T19:50:22.443Z,94.96
2022-12-04T19:52:51.595Z,95.07
2022-12-04T19:55:23.337Z,94.89
2022-12-04T19:57:50.316Z,95.60
2022-12-04T20:00:17.457Z,95.24
2022-12-04T20:02:48.102Z,94.76
2022-12-04T20:05:20.316Z,95.50
2022-12-04T20:07:47.343Z,94.93
2022-12-04T20:10:19.854Z,95.08
2022-12-04T20:12:48.908Z,94.94
2022-12-04T20:15:15.826Z,95.53
2022-12-04T20:17:55.160Z,95.63
2022-12-04T20:20:32.156Z,95.10
2022-12-04T20:23:06.444Z,95.08
2022-12-04T20:25:37.681Z,95.11
2022-12-04T20:28:10.195Z,95.13
2022-12-04T20:30:49.285Z,94.93
2022-12-04T20:33:25.741Z,95.08
2022-12-04T20:35:52.852Z,94.61
2022-12-04T20:38:22.843Z,95.38
2022-12-04T20:40:54.858Z,95.00
2022-12-04T20:43:30.840Z,94.94
2022-12-04T20:46:19.903Z,95.04
2022-12-04T20:48:50.773Z,94.39
2022-12-04T20:51:33.828Z,94.78
2022-12-04T20:54:04.622Z,94.50
2022-12-04T20:56:37.914Z,94.44
2022-12-04T20:59:21.350Z,95.68
2022-12-04T21:02:02.337Z,94.89
2022-12-04T21:04:31.844Z,94.95
2022-12-04T21:07:04.173Z,94.81
2022-12-04T21:09:31.071Z,94.00
2022-12-04T21:12:04.652Z,94.72
2022-12-04T21:14:54.290Z,94.63
2022-12-04T21:17:21.421Z,94.59
2022-12-04T21:19:52.670Z,94.25
2022-12-04T21:22:21.802Z,94.32
2022-12-04T21:24:51.227Z,94.42
2022-12-04T21:27:25.546Z,94.21
2022-12-04T21:29:52.294Z,94.50
2022-12-04T21:32:19.751Z,94.29
2022-12-04T21:34:47.812Z,94.03
2022-12-04T21:37:14.629Z,94.50
2022-12-04T21:39:43.302Z,94.02
2022-12-04T21:42:31.674Z,93.94
2022-12-04T21:45:04.258Z,94.44
2022-12-04T21:47:33.790Z,94.01
2022-12-04T21:50:18.460Z,94.15
2022-12-04T21:52:45.270Z,94.90
2022-12-04T21:55:14.404Z,94.48
2022-12-04T21:57:46.156Z,94.01
2022-12-04T22:00:17.033Z,94.27
2022-12-04T22:02:43.896Z,94.11
2022-12-04T22:05:21.251Z,93.58
2022-12-04T22:07:53.234Z,93.69
2022-12-04T22:10:20.018Z,93.92
2022-12-04T22:12:50.490Z,93.51
2022-12-04T22:15:18.003Z,94.04
2022-12-04T22:17:47.152Z,94.03
2022-12-04T22:20:17.414Z,93.95
2022-12-04T22:22:46.928Z,94.32
2022-12-04T22:25:14.744Z,93.08
2022-12-04T22:27:46.639Z,94.01
2022-12-04T22:30:13.954Z,94.12
2022-12-04T22:32:43.843Z,94.27
2022-12-04T22:35:13.455Z,94.32
2022-12-04T22:37:44.759Z,94.32
2022-12-04T22:40:15.598Z,94.32
2022-12-04T22:42:45.049Z,94.18
2022-12-04T22:45:15.536Z,94.34
2022-12-04T22:47:44.730Z,93.88
2022-12-04T22:50:13.639Z,94.05
2022-12-04T22:52:43.455Z,94.18
2022-12-04T22:55:10.419Z,94.33
2022-12-04T22:57:37.481Z,94.92
2022-12-04T23:00:14.003Z,95.01
2022-12-04T23:02:43.740Z,94.12
2022-12-04T23:05:12.114Z,94.28
2022-12-04T23:07:39.508Z,94.71
2022-12-04T23:10:09.845Z,94.80
2022-12-04T23:12:36.581Z,94.69
2022-12-04T23:15:07.840Z,94.98
2022-12-04T23:17:38.024Z,94.94
2022-12-04T23:20:08.798Z,94.92
2022-12-04T23:22:38.562Z,94.59
2022-12-04T23:25:07.012Z,94.66
2022-12-04T23:27:33.831Z,94.88
2022-12-04T23:30:05.324Z,94.88
2022-12-04T23:32:34.394Z,94.93
2022-12-04T23:35:06.013Z,95.03
2022-12-04T23:37:37.623Z,95.35
2022-12-04T23:40:09.559Z,94.39
2022-12-04T23:42:36.499Z,94.67
2022-12-04T23:45:04.398Z,95.13
2022-12-04T23:47:31.212Z,95.43
2022-12-04T23:50:06.004Z,95.03
2022-12-04T23:52:33.027Z,94.96
2022-12-04T23:55:07.412Z,95.36
2022-12-04T23:57:38.267Z,94.92
